Time;durP1;ratioP1;P1;durP2;ratioP2;P2;SDS_P1;SDS_P2;PMS_P1;PMS_P2;Temp;Humidity;BMP_temperature;BMP_pressure;BME280_temperature;BME280_humidity;BME280_pressure;Samples;Min_cycle;Max_cycle;Signal;HPM_P1;HPM_P2
2023/03/15 00:00:49;;;;;;;10.27;1.40;;;;;;;3.02;100.00;101129.66;5060124;28;20129;-58
2023/03/15 00:03:15;;;;;;;11.63;1.30;;;;;;;3.00;100.00;101132.47;5080348;28;20449;-57
2023/03/15 00:05:44;;;;;;;6.25;1.15;;;;;;;3.02;100.00;101129.66;5080451;28;20107;-55
2023/03/15 00:08:11;;;;;;;4.72;1.15;;;;;;;3.02;100.00;101132.31;5073370;28;20067;-54
2023/03/15 00:10:39;;;;;;;6.45;1.48;;;;;;;3.03;100.00;101131.38;5073533;28;20024;-53
2023/03/15 00:13:05;;;;;;;22.20;1.65;;;;;;;3.07;100.00;101138.09;5073367;28;20112;-55
2023/03/15 00:15:30;;;;;;;7.60;1.13;;;;;;;3.09;100.00;101146.81;5073660;28;20116;-54
2023/03/15 00:17:55;;;;;;;10.80;1.50;;;;;;;3.13;100.00;101144.72;5073436;28;20071;-54
2023/03/15 00:20:21;;;;;;;14.52;1.77;;;;;;;3.12;100.00;101141.22;5074080;28;20528;-55
2023/03/15 00:22:46;;;;;;;8.45;1.38;;;;;;;3.11;100.00;101147.53;5076759;28;20081;-52
2023/03/15 00:25:12;;;;;;;6.88;1.20;;;;;;;3.13;100.00;101147.38;5084095;28;20028;-55
2023/03/15 00:27:37;;;;;;;17.45;2.10;;;;;;;3.19;100.00;101152.22;5073012;28;20033;-51
2023/03/15 00:30:03;;;;;;;10.90;1.50;;;;;;;3.17;100.00;101148.84;5086015;28;20064;-52
2023/03/15 00:32:28;;;;;;;12.85;2.50;;;;;;;3.17;100.00;101154.16;5073333;28;20047;-53
2023/03/15 00:34:54;;;;;;;15.50;1.67;;;;;;;3.12;100.00;101146.53;5072604;28;20491;-52
2023/03/15 00:37:20;;;;;;;16.38;2.45;;;;;;;3.11;100.00;101150.19;5073144;28;20103;-50
2023/03/15 00:39:46;;;;;;;16.23;2.00;;;;;;;3.07;100.00;101162.88;5072859;28;20446;-50
2023/03/15 00:42:14;;;;;;;9.35;1.52;;;;;;;3.07;100.00;101164.69;5072489;28;20805;-53
2023/03/15 00:44:41;;;;;;;9.88;1.25;;;;;;;3.04;100.00;101156.97;5090656;28;20055;-51
2023/03/15 00:47:08;;;;;;;14.68;1.52;;;;;;;3.07;100.00;101162.03;5078815;28;20031;-52
2023/03/15 00:49:33;;;;;;;23.38;1.75;;;;;;;3.10;100.00;101158.28;5091445;28;20410;-50
2023/03/15 00:51:59;;;;;;;10.38;1.10;;;;;;;3.11;100.00;101160.81;5076769;28;20024;-50
2023/03/15 00:54:24;;;;;;;14.70;1.58;;;;;;;3.07;100.00;101159.38;5072848;28;20028;-50
2023/03/15 00:56:49;;;;;;;2.42;0.98;;;;;;;3.00;100.00;101159.03;5072488;28;20031;-50
2023/03/15 00:59:15;;;;;;;10.75;1.00;;;;;;;2.99;100.00;101167.97;5072639;28;20046;-50
2023/03/15 01:01:43;;;;;;;6.13;1.20;;;;;;;2.92;100.00;101166.78;5072346;28;20490;-52
2023/03/15 01:04:10;;;;;;;16.55;1.33;;;;;;;2.95;100.00;101176.31;5081349;28;20020;-53
2023/03/15 01:06:36;;;;;;;9.18;1.48;;;;;;;2.88;100.00;101180.47;5079204;28;20043;-53
2023/03/15 01:09:02;;;;;;;12.30;1.15;;;;;;;2.96;100.00;101188.66;5092061;28;20024;-53
2023/03/15 01:11:28;;;;;;;10.18;1.17;;;;;;;2.94;100.00;101190.59;5091581;28;20436;-51
2023/03/15 01:13:55;;;;;;;10.30;0.95;;;;;;;2.94;100.00;101193.25;5092275;28;20115;-52
2023/03/15 01:16:21;;;;;;;6.80;0.93;;;;;;;2.93;100.00;101191.56;5080789;28;20028;-52
2023/03/15 01:18:46;;;;;;;6.65;1.15;;;;;;;2.98;100.00;101194.69;5089838;28;20049;-53
2023/03/15 01:21:13;;;;;;;11.73;2.58;;;;;;;2.94;100.00;101195.91;5092341;28;20368;-52
2023/03/15 01:23:38;;;;;;;12.48;1.20;;;;;;;2.98;100.00;101192.88;5076657;28;20038;-50
2023/03/15 01:26:06;;;;;;;9.18;0.88;;;;;;;2.98;100.00;101192.03;5071565;28;20036;-52
2023/03/15 01:28:32;;;;;;;15.75;1.80;;;;;;;3.00;100.00;101198.94;5072453;28;20048;-50
2023/03/15 01:30:57;;;;;;;11.02;1.08;;;;;;;3.00;100.00;101211.34;5071885;28;20102;-51
2023/03/15 01:33:23;;;;;;;9.93;1.15;;;;;;;2.99;100.00;101205.19;5071704;28;20415;-50
2023/03/15 01:35:57;;;;;;;19.23;1.55;;;;;;;3.01;100.00;101213.91;5070365;28;20038;-53
2023/03/15 01:38:23;;;;;;;13.48;1.40;;;;;;;3.01;100.00;101213.91;5074409;28;20085;-51
2023/03/15 01:40:48;;;;;;;13.40;1.73;;;;;;;3.03;100.00;101227.09;5076234;28;20125;-51
2023/03/15 01:43:16;;;;;;;4.13;0.90;;;;;;;3.01;100.00;101224.53;5071215;28;20033;-50
2023/03/15 01:46:00;;;;;;;7.45;1.08;;;;;;;3.04;100.00;101231.44;5074342;28;20020;-52
2023/03/15 01:48:38;;;;;;;11.15;1.00;;;;;;;3.02;100.00;101233.34;5074648;28;20070;-50
2023/03/15 01:51:16;;;;;;;16.27;1.40;;;;;;;3.00;100.00;101244.13;5090855;28;20064;-50
2023/03/15 01:53:45;;;;;;;11.02;0.88;;;;;;;3.00;100.00;101246.78;5092175;28;20400;-52
2023/03/15 01:56:11;;;;;;;9.20;1.33;;;;;;;3.03;100.00;101240.38;5078981;28;20032;-50
2023/03/15 01:58:37;;;;;;;15.95;1.40;;;;;;;3.07;100.00;101245.31;5068443;28;20024;-50
2023/03/15 02:01:03;;;;;;;16.35;1.67;;;;;;;3.11;100.00;101256.56;5069946;28;20043;-52
2023/03/15 02:03:33;;;;;;;10.30;1.40;;;;;;;3.14;100.00;101256.31;5071389;28;20517;-51
2023/03/15 02:06:02;;;;;;;7.05;1.30;;;;;;;3.17;100.00;101255.22;5081264;28;20375;-51
2023/03/15 02:08:33;;;;;;;12.23;1.15;;;;;;;3.18;100.00;101255.06;5072775;28;20494;-53
2023/03/15 02:11:00;;;;;;;11.05;1.60;;;;;;;3.15;100.00;101258.00;5084121;28;20077;-53
2023/03/15 02:13:28;;;;;;;9.38;1.25;;;;;;;3.16;100.00;101250.84;5089440;28;20028;-50
2023/03/15 02:15:53;;;;;;;6.88;1.10;;;;;;;3.13;100.00;101257.25;5072682;28;20474;-51
2023/03/15 02:18:19;;;;;;;11.13;1.65;;;;;;;3.12;100.00;101258.25;5070820;28;20047;-50
2023/03/15 02:20:52;;;;;;;16.17;1.60;;;;;;;3.12;100.00;101260.91;5071939;28;20076;-51
2023/03/15 02:23:19;;;;;;;13.65;1.52;;;;;;;3.10;100.00;101252.19;5078635;28;20095;-50
2023/03/15 02:25:50;;;;;;;17.42;1.50;;;;;;;3.10;100.00;101260.16;5067215;28;20020;-50
2023/03/15 02:28:17;;;;;;;13.85;2.03;;;;;;;3.07;100.00;101261.25;5070809;28;20040;-49
2023/03/15 02:30:44;;;;;;;7.28;1.35;;;;;;;3.03;100.00;101264.31;5052370;28;20582;-50
2023/03/15 02:33:17;;;;;;;11.32;1.70;;;;;;;2.98;100.00;101261.19;5089628;28;20067;-52
2023/03/15 02:35:42;;;;;;;8.25;1.30;;;;;;;2.96;100.00;101260.44;5074941;28;20032;-51
2023/03/15 02:38:07;;;;;;;12.38;1.50;;;;;;;2.97;100.00;101278.06;5070265;28;20031;-51
2023/03/15 02:40:33;;;;;;;11.07;1.67;;;;;;;2.95;100.00;101272.91;5085660;28;20067;-52
2023/03/15 02:43:06;;;;;;;10.98;1.80;;;;;;;2.91;100.00;101270.59;5072535;28;20033;-51
2023/03/15 02:45:32;;;;;;;10.68;1.73;;;;;;;2.93;100.00;101280.16;5070034;28;20491;-50
2023/03/15 02:47:59;;;;;;;14.52;1.58;;;;;;;2.92;100.00;101282.91;5070043;28;20359;-51
2023/03/15 02:50:24;;;;;;;10.05;1.45;;;;;;;2.89;100.00;101293.78;5077614;28;20024;-50
2023/03/15 02:52:51;;;;;;;23.75;1.65;;;;;;;2.84;100.00;101294.16;5070301;28;20433;-52
2023/03/15 02:55:18;;;;;;;7.55;1.10;;;;;;;2.86;100.00;101306.34;5070450;28;20056;-53
2023/03/15 02:57:43;;;;;;;16.63;1.80;;;;;;;2.88;100.00;101308.91;5070560;28;20036;-51
2023/03/15 03:00:13;;;;;;;16.77;1.55;;;;;;;2.91;100.00;101324.63;5084494;28;20382;-52
2023/03/15 03:02:39;;;;;;;10.15;1.30;;;;;;;3.02;100.00;101334.41;5073568;28;20106;-50
2023/03/15 03:05:05;;;;;;;10.88;1.48;;;;;;;2.97;100.00;101344.53;5070486;28;20052;-55
2023/03/15 03:07:30;;;;;;;7.13;1.67;;;;;;;2.86;100.00;101342.72;5088477;28;20066;-51
2023/03/15 03:09:56;;;;;;;10.50;1.40;;;;;;;2.87;100.00;101344.44;5078002;28;20059;-56
2023/03/15 03:12:21;;;;;;;5.75;1.23;;;;;;;2.82;100.00;101352.78;5070170;28;20028;-58
2023/03/15 03:14:48;;;;;;;11.55;1.00;;;;;;;2.82;100.00;101346.63;5069667;28;20025;-56
2023/03/15 03:17:13;;;;;;;8.88;1.20;;;;;;;2.71;100.00;101344.75;5070279;28;20051;-59
2023/03/15 03:19:39;;;;;;;6.35;0.90;;;;;;;2.60;100.00;101342.94;5078949;28;20130;-59
2023/03/15 03:22:05;;;;;;;16.10;1.30;;;;;;;2.53;100.00;101340.88;5078425;28;20025;-57
2023/03/15 03:24:30;;;;;;;4.35;0.80;;;;;;;2.50;100.00;101341.09;5078289;28;20032;-53
2023/03/15 03:26:58;;;;;;;5.25;1.20;;;;;;;2.38;100.00;101337.59;5060854;28;20025;-55
2023/03/15 03:29:24;;;;;;;11.52;0.98;;;;;;;2.34;100.00;101346.72;5081424;28;20034;-59
2023/03/15 03:31:50;;;;;;;11.55;1.52;;;;;;;2.28;100.00;101350.69;5078042;28;20032;-58
2023/03/15 03:34:15;;;;;;;1.85;1.02;;;;;;;2.30;100.00;101350.59;5054725;28;20071;-55
2023/03/15 03:36:44;;;;;;;4.25;0.88;;;;;;;2.25;100.00;101352.75;5050181;28;20029;-55
2023/03/15 03:39:09;;;;;;;4.07;1.10;;;;;;;2.22;100.00;101356.50;5061643;28;20103;-57
2023/03/15 03:41:35;;;;;;;4.75;1.00;;;;;;;2.16;100.00;101354.31;5081276;28;20254;-55
2023/03/15 03:44:00;;;;;;;8.40;1.02;;;;;;;2.14;100.00;101366.84;5090093;28;20024;-53
2023/03/15 03:46:27;;;;;;;5.57;0.93;;;;;;;2.14;100.00;101378.31;5089919;28;20028;-53
2023/03/15 03:48:53;;;;;;;11.98;1.30;;;;;;;2.16;100.00;101376.38;5082243;28;20478;-51
2023/03/15 03:51:18;;;;;;;6.55;1.20;;;;;;;2.13;100.00;101381.06;5070904;28;20032;-52
2023/03/15 03:53:43;;;;;;;9.60;1.40;;;;;;;2.09;100.00;101385.75;5069610;28;20033;-50
2023/03/15 03:56:09;;;;;;;21.05;1.40;;;;;;;2.07;100.00;101395.63;5069869;28;20029;-50
2023/03/15 03:58:34;;;;;;;2.70;0.90;;;;;;;2.07;100.00;101400.94;5067661;28;20086;-50
2023/03/15 04:01:00;;;;;;;4.18;1.42;;;;;;;2.00;100.00;101401.50;5080109;28;20021;-50
2023/03/15 04:03:28;;;;;;;5.63;1.10;;;;;;;1.94;100.00;101395.69;5089820;28;20047;-52
2023/03/15 04:05:57;;;;;;;5.28;1.23;;;;;;;1.92;100.00;101416.22;5090363;28;20492;-52
2023/03/15 04:08:23;;;;;;;12.02;1.65;;;;;;;1.89;100.00;101419.06;5085940;28;20391;-50
2023/03/15 04:10:53;;;;;;;12.07;2.03;;;;;;;1.88;100.00;101424.50;5068951;28;20145;-50
2023/03/15 04:13:19;;;;;;;8.23;1.80;;;;;;;1.91;100.00;101435.72;5069390;28;20689;-53
2023/03/15 04:15:45;;;;;;;8.38;1.50;;;;;;;1.98;100.00;101444.97;5069545;28;20020;-50
2023/03/15 04:18:11;;;;;;;7.47;1.50;;;;;;;2.06;100.00;101460.34;5069408;28;20475;-53
2023/03/15 04:20:36;;;;;;;9.75;1.80;;;;;;;2.17;100.00;101459.56;5069859;28;20120;-52
2023/03/15 04:23:01;;;;;;;14.30;2.25;;;;;;;2.26;100.00;101458.84;5069217;28;20082;-54
2023/03/15 04:25:27;;;;;;;15.73;1.77;;;;;;;2.40;100.00;101464.00;5082390;28;20024;-52
2023/03/15 04:28:01;;;;;;;29.95;1.88;;;;;;;2.40;100.00;101466.69;5073766;28;20064;-55
2023/03/15 04:30:28;;;;;;;29.05;2.13;;;;;;;2.37;100.00;101474.00;5085282;28;20133;-52
2023/03/15 04:33:02;;;;;;;14.90;1.33;;;;;;;2.28;100.00;101472.88;5089159;28;20518;-54
2023/03/15 04:35:29;;;;;;;32.38;2.20;;;;;;;2.29;100.00;101476.38;5089114;28;20024;-55
2023/03/15 04:37:56;;;;;;;18.63;1.90;;;;;;;2.29;100.00;101477.25;5076914;28;20040;-51
2023/03/15 04:40:22;;;;;;;25.65;2.60;;;;;;;2.37;100.00;101468.69;5083357;28;20036;-52
2023/03/15 04:42:49;;;;;;;16.25;1.73;;;;;;;2.36;100.00;101474.97;5089161;28;20031;-49
2023/03/15 04:45:15;;;;;;;19.00;2.05;;;;;;;2.38;100.00;101481.03;5084814;28;20527;-53
2023/03/15 04:47:40;;;;;;;15.93;1.23;;;;;;;2.41;100.00;101488.75;5072351;28;20021;-51
2023/03/15 04:50:06;;;;;;;18.05;1.73;;;;;;;2.34;100.00;101484.84;5073889;28;20020;-52
2023/03/15 04:52:32;;;;;;;22.60;2.20;;;;;;;2.23;100.00;101493.63;5086528;28;20484;-51
2023/03/15 04:54:57;;;;;;;24.90;2.00;;;;;;;2.16;100.00;101492.38;5083039;28;20020;-49
2023/03/15 04:57:22;;;;;;;22.38;2.17;;;;;;;2.06;100.00;101501.97;5072175;28;20079;-52
2023/03/15 04:59:48;;;;;;;18.80;2.13;;;;;;;1.98;100.00;101498.06;5071480;28;20047;-53
2023/03/15 05:02:13;;;;;;;19.35;2.05;;;;;;;1.90;100.00;101492.44;5071988;28;20025;-54
2023/03/15 05:04:38;;;;;;;18.30;3.00;;;;;;;1.85;100.00;101499.06;5071465;28;20040;-53
2023/03/15 05:07:04;;;;;;;23.58;2.20;;;;;;;1.78;100.00;101501.28;5072669;28;20017;-51
2023/03/15 05:09:36;;;;;;;15.10;1.88;;;;;;;1.68;100.00;101508.19;5070888;28;20119;-54
2023/03/15 05:12:02;;;;;;;22.00;2.78;;;;;;;1.64;100.00;101512.88;5072295;28;20059;-51
2023/03/15 05:14:28;;;;;;;23.98;2.63;;;;;;;1.62;100.00;101519.25;5072765;28;20536;-51
2023/03/15 05:16:54;;;;;;;18.77;2.30;;;;;;;1.58;100.00;101513.31;5072337;28;20063;-51
2023/03/15 05:19:20;;;;;;;13.05;2.72;;;;;;;1.53;100.00;101508.31;5071990;28;20098;-52
2023/03/15 05:21:46;;;;;;;23.20;3.42;;;;;;;1.52;100.00;101509.25;5071905;28;20347;-53
2023/03/15 05:24:11;;;;;;;22.42;3.08;;;;;;;1.51;100.00;101518.19;5072128;28;20025;-54
2023/03/15 05:26:36;;;;;;;25.83;2.70;;;;;;;1.47;100.00;101521.16;5072127;28;20025;-52
2023/03/15 05:29:02;;;;;;;16.23;2.95;;;;;;;1.46;100.00;101519.47;5071030;28;20492;-55
2023/03/15 05:31:28;;;;;;;17.05;2.20;;;;;;;1.47;100.00;101527.28;5071686;28;20469;-53
2023/03/15 05:33:53;;;;;;;38.30;3.30;;;;;;;1.48;100.00;101525.53;5072220;28;20083;-53
2023/03/15 05:36:19;;;;;;;25.65;5.30;;;;;;;1.49;100.00;101533.34;5071880;28;20071;-51
2023/03/15 05:38:44;;;;;;;22.13;3.88;;;;;;;1.48;100.00;101539.63;5071318;28;20059;-52
2023/03/15 05:41:09;;;;;;;19.40;3.15;;;;;;;1.46;100.00;101554.78;5071343;28;20059;-51
2023/03/15 05:43:35;;;;;;;19.25;3.38;;;;;;;1.47;100.00;101552.97;5071658;28;20036;-52
2023/03/15 05:46:00;;;;;;;27.17;3.95;;;;;;;1.47;100.00;101558.28;5071346;28;20036;-53
2023/03/15 05:48:26;;;;;;;23.67;2.85;;;;;;;1.44;100.00;101559.34;5071403;28;20036;-53
2023/03/15 05:50:51;;;;;;;22.85;3.00;;;;;;;1.43;100.00;101562.97;5073076;28;20182;-54
2023/03/15 05:53:17;;;;;;;25.42;3.40;;;;;;;1.42;100.00;101577.19;5070343;28;20116;-54
2023/03/15 05:55:42;;;;;;;15.85;3.22;;;;;;;1.50;100.00;101582.81;5065189;28;20028;-53
2023/03/15 05:58:07;;;;;;;23.70;3.20;;;;;;;1.56;100.00;101584.19;5069355;28;20109;-53
2023/03/15 06:00:33;;;;;;;15.68;2.33;;;;;;;1.59;100.00;101589.28;5070793;28;20144;-52
2023/03/15 06:02:58;;;;;;;18.00;2.63;;;;;;;1.60;100.00;101590.13;5069328;28;20025;-53
2023/03/15 06:05:24;;;;;;;33.83;3.42;;;;;;;1.61;100.00;101591.84;5071483;28;20032;-50
2023/03/15 06:07:49;;;;;;;22.85;2.83;;;;;;;1.61;100.00;101603.31;5070154;28;20479;-53
2023/03/15 06:10:14;;;;;;;34.50;4.10;;;;;;;1.62;100.00;101606.78;5070814;28;20043;-52
2023/03/15 06:12:40;;;;;;;23.80;3.55;;;;;;;1.67;100.00;101602.03;5070298;28;20027;-50
2023/03/15 06:15:06;;;;;;;28.60;3.70;;;;;;;1.69;100.00;101610.75;5069076;28;20120;-54
2023/03/15 06:17:31;;;;;;;48.08;6.13;;;;;;;1.73;100.00;101625.47;5070717;28;20017;-52
2023/03/15 06:19:57;;;;;;;33.53;3.00;;;;;;;1.78;100.00;101631.31;5070178;28;20380;-51
2023/03/15 06:22:23;;;;;;;20.45;2.83;;;;;;;1.80;100.00;101629.41;5082056;28;20056;-55
2023/03/15 06:24:48;;;;;;;25.73;2.38;;;;;;;1.82;100.00;101632.81;5070621;28;20033;-52
2023/03/15 06:27:14;;;;;;;18.55;2.17;;;;;;;1.90;100.00;101634.94;5070146;28;20024;-51
2023/03/15 06:29:39;;;;;;;13.15;2.38;;;;;;;1.94;100.00;101633.75;5067448;28;20918;-54
2023/03/15 06:32:05;;;;;;;19.30;2.15;;;;;;;2.01;100.00;101642.16;5076671;28;20151;-54
2023/03/15 06:34:30;;;;;;;25.90;2.90;;;;;;;2.09;100.00;101642.47;5070385;28;20031;-51
2023/03/15 06:36:55;;;;;;;30.23;3.10;;;;;;;2.17;100.00;101648.09;5070554;28;20162;-53
2023/03/15 06:39:22;;;;;;;45.72;5.00;;;;;;;2.19;100.00;101651.50;5077601;28;20114;-52
2023/03/15 06:41:47;;;;;;;26.90;3.90;;;;;;;2.44;100.00;101655.06;5070761;28;20111;-53
2023/03/15 06:44:13;;;;;;;32.53;3.40;;;;;;;2.80;100.00;101660.41;5067036;28;20115;-52
2023/03/15 06:46:38;;;;;;;24.70;2.97;;;;;;;3.35;100.00;101660.81;5068988;28;20063;-55
2023/03/15 06:49:04;;;;;;;39.10;3.58;;;;;;;3.84;100.00;101667.69;5055514;28;20028;-54
2023/03/15 06:51:29;;;;;;;23.88;3.17;;;;;;;4.30;100.00;101676.63;5060370;28;20025;-54
2023/03/15 06:53:54;;;;;;;17.60;2.40;;;;;;;4.40;100.00;101673.09;5069833;28;20032;-51
2023/03/15 06:56:20;;;;;;;20.63;2.78;;;;;;;4.34;100.00;101662.91;5069695;28;20444;-54
2023/03/15 06:58:45;;;;;;;25.02;2.70;;;;;;;4.59;100.00;101661.81;5070066;28;20071;-55
2023/03/15 07:01:12;;;;;;;18.38;2.95;;;;;;;4.94;100.00;101649.25;5069702;28;20397;-52
2023/03/15 07:03:38;;;;;;;26.58;2.50;;;;;;;5.04;100.00;101645.72;5069117;28;20102;-52
2023/03/15 07:06:03;;;;;;;23.20;3.58;;;;;;;5.25;100.00;101632.41;5069206;28;20461;-55
2023/03/15 07:08:29;;;;;;;22.60;2.40;;;;;;;5.28;100.00;101629.47;5069289;28;20425;-53
2023/03/15 07:10:54;;;;;;;28.45;2.63;;;;;;;5.73;100.00;101631.91;5069016;28;20029;-51
2023/03/15 07:13:19;;;;;;;14.52;2.80;;;;;;;6.10;100.00;101639.47;5069124;28;20077;-55
2023/03/15 07:15:46;;;;;;;21.98;2.83;;;;;;;6.81;100.00;101641.25;5063604;28;20116;-53
2023/03/15 07:18:11;;;;;;;26.30;2.83;;;;;;;6.45;100.00;101638.22;5049629;28;20471;-54
2023/03/15 07:20:37;;;;;;;29.02;2.72;;;;;;;6.38;100.00;101640.59;5065010;28;20058;-52
2023/03/15 07:23:02;;;;;;;25.00;2.55;;;;;;;6.69;100.00;101640.53;5069166;28;20026;-55
2023/03/15 07:25:28;;;;;;;25.95;3.22;;;;;;;6.44;100.00;101643.69;5065296;28;20035;-55
2023/03/15 07:27:53;;;;;;;28.95;3.33;;;;;;;6.76;100.00;101641.66;5064000;28;20036;-52
2023/03/15 07:30:19;;;;;;;14.25;2.30;;;;;;;6.59;100.00;101645.03;5065677;28;20029;-54
2023/03/15 07:32:45;;;;;;;18.67;1.60;;;;;;;7.00;100.00;101637.75;5069323;28;20036;-51
2023/03/15 07:35:10;;;;;;;10.18;1.75;;;;;;;7.01;100.00;101647.50;5069694;28;20052;-52
2023/03/15 07:37:36;;;;;;;18.35;3.97;;;;;;;8.07;100.00;101643.03;5069581;28;20426;-53
2023/03/15 07:40:08;;;;;;;24.08;3.00;;;;;;;8.26;100.00;101647.47;5069587;28;20490;-54
2023/03/15 07:42:34;;;;;;;19.45;1.88;;;;;;;9.06;100.00;101655.81;5069246;28;20089;-55
2023/03/15 07:44:59;;;;;;;21.02;2.42;;;;;;;9.37;100.00;101665.22;5069217;28;20029;-53
2023/03/15 07:47:25;;;;;;;20.42;2.72;;;;;;;9.51;98.96;101666.53;5069138;28;20034;-52
2023/03/15 07:49:50;;;;;;;16.90;2.80;;;;;;;10.90;96.56;101675.44;5069204;28;20035;-54
2023/03/15 07:52:16;;;;;;;28.13;3.75;;;;;;;11.15;89.22;101680.88;5069314;28;20097;-54
2023/03/15 07:54:41;;;;;;;23.00;2.97;;;;;;;10.68;93.46;101679.56;5069355;28;20447;-53
2023/03/15 07:57:06;;;;;;;20.05;2.28;;;;;;;9.91;90.21;101677.75;5068772;28;20032;-51
2023/03/15 07:59:32;;;;;;;22.55;2.80;;;;;;;11.54;91.47;101693.75;5069460;28;20039;-56
2023/03/15 08:01:58;;;;;;;25.73;3.10;;;;;;;11.40;92.08;101689.84;5069461;28;20024;-52
2023/03/15 08:04:23;;;;;;;19.90;2.63;;;;;;;11.19;87.84;101693.88;5069559;28;20418;-52
2023/03/15 08:06:48;;;;;;;17.55;2.53;;;;;;;11.27;88.74;101694.88;5068994;28;20501;-53
2023/03/15 08:09:14;;;;;;;18.38;2.40;;;;;;;11.07;87.76;101695.19;5069372;28;20044;-52
2023/03/15 08:11:39;;;;;;;20.23;2.38;;;;;;;10.97;87.82;101698.00;5067060;28;20082;-53
2023/03/15 08:14:04;;;;;;;20.05;2.95;;;;;;;11.08;89.07;101696.84;5067439;28;20012;-53
2023/03/15 08:16:30;;;;;;;19.05;2.42;;;;;;;12.82;81.69;101708.22;5075876;28;20474;-53
2023/03/15 08:18:55;;;;;;;25.30;2.38;;;;;;;12.54;79.82;101713.22;5067435;28;20432;-55
2023/03/15 08:21:21;;;;;;;18.52;3.25;;;;;;;12.73;80.88;101717.38;5076044;28;20119;-51
2023/03/15 08:23:46;;;;;;;20.67;2.83;;;;;;;13.17;74.71;101714.13;5085191;28;20039;-52
2023/03/15 08:26:11;;;;;;;32.47;3.22;;;;;;;14.37;73.23;101727.03;5072849;28;20324;-54
2023/03/15 08:28:37;;;;;;;23.02;2.47;;;;;;;14.89;66.35;101715.31;5072705;28;20044;-54
2023/03/15 08:31:06;;;;;;;22.83;2.78;;;;;;;14.73;65.43;101715.50;5072431;28;20475;-50
2023/03/15 08:33:32;;;;;;;19.60;3.08;;;;;;;15.45;60.30;101726.38;5072361;28;20028;-54
2023/03/15 08:35:57;;;;;;;17.55;2.60;;;;;;;14.68;61.82;101725.03;5072449;28;20108;-53
2023/03/15 08:38:23;;;;;;;19.73;2.55;;;;;;;13.49;65.59;101718.50;5072348;28;20032;-52
2023/03/15 08:40:48;;;;;;;25.65;3.28;;;;;;;13.45;66.76;101716.34;5071855;28;20021;-52
2023/03/15 08:43:14;;;;;;;17.75;2.58;;;;;;;13.58;64.11;101716.59;5072298;28;20028;-52
2023/03/15 08:45:39;;;;;;;15.27;2.25;;;;;;;13.73;65.19;101713.94;5071974;28;20040;-52
2023/03/15 08:48:04;;;;;;;17.75;2.25;;;;;;;14.40;61.41;101721.25;5078789;28;20027;-54
2023/03/15 08:50:31;;;;;;;17.20;2.42;;;;;;;14.28;62.47;101721.72;5074232;28;20058;-50
2023/03/15 08:52:56;;;;;;;18.65;2.78;;;;;;;15.09;62.09;101721.81;5072654;28;20020;-52
2023/03/15 08:55:22;;;;;;;19.00;2.15;;;;;;;14.33;61.97;101736.59;5072445;28;20039;-52
2023/03/15 08:57:47;;;;;;;14.60;2.35;;;;;;;14.69;57.67;101728.56;5071808;28;20036;-54
2023/03/15 09:00:21;;;;;;;12.45;2.20;;;;;;;14.98;57.42;101730.44;5071290;28;20458;-54
2023/03/15 09:02:53;;;;;;;9.82;2.05;;;;;;;15.30;59.12;101729.16;5071316;28;20032;-52
2023/03/15 09:05:20;;;;;;;19.58;2.42;;;;;;;15.19;58.02;101734.22;5072298;28;20411;-53
2023/03/15 09:07:45;;;;;;;18.73;2.33;;;;;;;14.74;57.93;101731.56;5072052;28;20522;-52
2023/03/15 09:10:16;;;;;;;18.75;2.45;;;;;;;14.34;56.35;101724.72;5072119;28;20119;-50
2023/03/15 09:12:42;;;;;;;24.02;2.47;;;;;;;14.38;56.20;101723.34;5071872;28;20124;-51
2023/03/15 09:15:08;;;;;;;12.15;1.80;;;;;;;15.77;55.15;101718.78;5072271;28;20059;-50
2023/03/15 09:17:34;;;;;;;11.32;2.45;;;;;;;15.27;53.63;101718.69;5072511;28;20075;-54
2023/03/15 09:19:59;;;;;;;15.80;2.00;;;;;;;15.90;51.48;101715.34;5071608;28;20041;-52
2023/03/15 09:22:25;;;;;;;11.10;2.15;;;;;;;15.78;48.83;101710.47;5072029;28;20036;-51
2023/03/15 09:24:51;;;;;;;12.23;2.50;;;;;;;16.05;45.15;101710.69;5071777;28;20116;-52
2023/03/15 09:27:16;;;;;;;8.57;1.70;;;;;;;16.55;43.16;101714.16;5071417;28;20135;-51
2023/03/15 09:29:42;;;;;;;17.52;2.40;;;;;;;15.32;48.61;101709.97;5071936;28;20107;-50
2023/03/15 09:32:07;;;;;;;17.70;1.88;;;;;;;12.86;48.13;101712.25;5071669;28;20044;-50
2023/03/15 09:34:34;;;;;;;22.48;3.25;;;;;;;13.89;48.33;101718.38;5070168;28;20040;-51
2023/03/15 09:36:59;;;;;;;14.57;1.83;;;;;;;13.48;53.87;101721.38;5071893;28;20029;-52
2023/03/15 09:39:25;;;;;;;16.55;2.22;;;;;;;12.96;55.50;101717.44;5071672;28;20035;-50
2023/03/15 09:41:55;;;;;;;14.90;1.85;;;;;;;12.75;55.45;101718.03;5072408;28;20071;-51
2023/03/15 09:45:00;;;;;;;12.15;1.60;;;;;;;12.86;51.40;101722.22;5070233;28;20016;-51
2023/03/15 09:47:28;;;;;;;10.13;1.50;;;;;;;12.19;51.72;101707.25;5069529;28;20059;-52
2023/03/15 09:49:59;;;;;;;13.82;1.70;;;;;;;11.63;51.14;101712.44;5070327;28;20035;-50
2023/03/15 09:52:42;;;;;;;16.80;2.10;;;;;;;11.69;53.23;101713.66;5066616;28;20263;-51
2023/03/15 09:55:10;;;;;;;18.02;2.28;;;;;;;11.50;51.14;101717.47;5070885;28;20042;-51
2023/03/15 09:57:47;;;;;;;3.28;1.00;;;;;;;12.29;49.48;101715.13;5064545;28;20032;-52
2023/03/15 10:00:17;;;;;;;8.52;1.42;;;;;;;12.11;47.63;101722.56;5069041;28;20082;-52
2023/03/15 10:02:48;;;;;;;11.73;1.55;;;;;;;12.37;48.35;101715.09;5071994;28;20068;-53
2023/03/15 10:05:19;;;;;;;10.85;1.75;;;;;;;12.28;50.09;101724.25;5078813;28;20368;-54
2023/03/15 10:07:45;;;;;;;6.85;1.27;;;;;;;12.94;49.93;101731.13;5069559;28;20147;-50
2023/03/15 10:10:18;;;;;;;12.88;1.33;;;;;;;11.49;48.76;101739.22;5090584;28;20051;-51
2023/03/15 10:12:51;;;;;;;16.08;1.70;;;;;;;12.41;51.82;101731.81;5075062;28;20067;-52
2023/03/15 10:15:22;;;;;;;15.73;1.67;;;;;;;11.54;49.25;101732.31;5068989;28;20139;-52
2023/03/15 10:17:57;;;;;;;9.40;1.73;;;;;;;12.08;49.42;101748.91;5070851;28;20035;-50
2023/03/15 10:20:25;;;;;;;13.02;1.33;;;;;;;12.18;49.71;101755.97;5072683;28;20131;-51
2023/03/15 10:22:53;;;;;;;22.13;1.55;;;;;;;12.59;46.15;101753.22;5062024;28;20099;-55
2023/03/15 10:25:29;;;;;;;18.45;1.77;;;;;;;12.54;50.41;101756.44;5069405;28;20029;-52
2023/03/15 10:27:59;;;;;;;11.55;1.33;;;;;;;11.81;51.02;101760.00;5070016;28;20534;-53
2023/03/15 10:30:27;;;;;;;12.63;1.30;;;;;;;11.54;52.59;101753.91;5068298;28;20473;-50
2023/03/15 10:33:07;;;;;;;11.55;1.50;;;;;;;10.59;53.57;101760.47;5069783;28;20021;-51
2023/03/15 10:35:33;;;;;;;21.42;2.45;;;;;;;10.57;52.67;101765.16;5075492;28;20025;-54
2023/03/15 10:37:58;;;;;;;9.73;1.60;;;;;;;10.63;55.11;101770.72;5064621;28;20075;-52
2023/03/15 10:40:43;;;;;;;13.15;1.65;;;;;;;10.52;54.97;101774.53;5071060;28;20028;-52
2023/03/15 10:43:24;;;;;;;9.63;1.40;;;;;;;10.55;51.58;101773.38;5066915;28;20068;-53
2023/03/15 10:46:00;;;;;;;17.40;1.30;;;;;;;10.97;52.53;101770.72;5069306;28;20506;-53
2023/03/15 10:48:27;;;;;;;6.25;1.38;;;;;;;10.94;50.19;101779.13;5070168;28;20028;-53
2023/03/15 10:50:54;;;;;;;9.02;0.85;;;;;;;10.97;47.34;101786.03;5068941;28;20024;-51
2023/03/15 10:53:20;;;;;;;7.57;1.15;;;;;;;10.82;48.96;101784.97;5070635;28;20125;-51
2023/03/15 10:55:47;;;;;;;13.57;1.40;;;;;;;10.77;52.94;101782.78;5068323;28;20170;-52
2023/03/15 10:58:16;;;;;;;10.27;1.80;;;;;;;10.09;54.73;101788.84;5068387;28;20086;-51
2023/03/15 11:00:48;;;;;;;16.80;1.75;;;;;;;10.31;56.43;101799.13;5068496;28;20036;-52
2023/03/15 11:03:22;;;;;;;13.63;1.50;;;;;;;10.73;55.94;101793.00;5069284;28;20094;-51
2023/03/15 11:05:57;;;;;;;6.75;1.10;;;;;;;10.23;52.22;101793.63;5069691;28;20032;-55
2023/03/15 11:08:38;;;;;;;9.00;1.60;;;;;;;9.90;53.26;101800.59;5070011;28;20028;-52
2023/03/15 11:11:04;;;;;;;5.60;1.30;;;;;;;10.23;54.47;101796.31;5072896;28;20028;-56
2023/03/15 11:13:33;;;;;;;6.15;1.40;;;;;;;10.60;53.36;101795.28;5069302;28;20115;-52
2023/03/15 11:16:11;;;;;;;11.38;2.03;;;;;;;10.81;53.21;101783.28;5069706;28;20071;-52
2023/03/15 11:18:47;;;;;;;7.07;1.75;;;;;;;10.59;50.98;101787.38;5070302;28;20064;-52